Time;durP1;ratioP1;P1;durP2;ratioP2;P2;SDS_P1;SDS_P2;PMS_P1;PMS_P2;Temp;Humidity;BMP_temperature;BMP_pressure;BME280_temperature;BME280_humidity;BME280_pressure;Samples;Min_cycle;Max_cycle;Signal;HPM_P1;HPM_P2
2024/01/23 00:02:05;;;;;;;;;;;12.40;46.70;;;12.51;49.83;100550.28;5031909;28;20020;-35
2024/01/23 00:04:33;;;;;;;;;;;12.40;46.70;;;12.50;49.62;100551.00;5031851;28;20385;-35
2024/01/23 00:07:01;;;;;;;;;;;12.30;46.70;;;12.49;48.63;100567.69;5032410;28;19929;-35
2024/01/23 00:09:29;;;;;;;;;;;12.30;46.70;;;12.50;49.29;100573.59;5032607;28;20369;-35
2024/01/23 00:12:00;;;;;;;;;;;12.30;46.80;;;12.49;49.14;100579.34;5032086;28;20041;-35
2024/01/23 00:14:28;;;;;;;;;;;12.30;46.80;;;12.52;49.67;100572.16;5032346;28;19925;-35
2024/01/23 00:16:56;;;;;;;;;;;12.30;46.70;;;12.52;48.83;100572.16;5032162;28;19925;-35
2024/01/23 00:19:24;;;;;;;;;;;12.40;46.80;;;12.52;49.24;100582.22;5032220;28;20456;-35
2024/01/23 00:21:52;;;;;;;;;;;12.40;46.80;;;12.51;49.51;100587.97;5031588;28;19969;-35
2024/01/23 00:24:20;;;;;;;;;;;12.30;46.70;;;12.52;49.09;100591.38;5032216;28;19965;-35
2024/01/23 00:26:48;;;;;;;;;;;12.30;46.70;;;12.52;49.23;100599.81;5032258;28;20455;-35
2024/01/23 00:29:17;;;;;;;;;;;12.30;46.70;;;12.52;49.10;100607.34;5032317;28;19925;-35
2024/01/23 00:31:45;;;;;;;;;;;12.40;46.80;;;12.53;48.99;100601.59;5030547;28;20016;-35
2024/01/23 00:34:13;;;;;;;;;;;12.40;46.70;;;12.55;48.70;100591.75;5032107;28;20280;-35
2024/01/23 00:36:42;;;;;;;;;;;12.40;46.60;;;12.55;48.78;100602.69;5032318;28;20240;-35
2024/01/23 00:39:10;;;;;;;;;;;12.40;46.60;;;12.53;49.27;100609.16;5032384;28;19997;-35
2024/01/23 00:41:39;;;;;;;;;;;12.40;46.60;;;12.51;48.54;100610.59;5031244;28;19925;-35
2024/01/23 00:44:07;;;;;;;;;;;12.30;46.60;;;12.52;49.38;100622.41;5031912;28;20033;-35
2024/01/23 00:46:36;;;;;;;;;;;12.30;46.60;;;12.52;48.91;100614.88;5032096;28;20288;-35
2024/01/23 00:49:04;;;;;;;;;;;12.30;46.60;;;12.54;48.81;100641.09;5032127;28;19929;-35
2024/01/23 00:51:32;;;;;;;;;;;12.40;46.70;;;12.51;49.30;100625.66;5031003;28;19925;-35
2024/01/23 00:54:02;;;;;;;;;;;12.30;46.60;;;12.52;49.24;100627.44;5032127;28;19925;-35
2024/01/23 00:56:30;;;;;;;;;;;12.30;46.60;;;12.52;49.48;100645.03;5031570;28;19971;-34
2024/01/23 00:58:58;;;;;;;;;;;12.40;46.70;;;12.52;48.88;100657.59;5032064;28;19929;-35
2024/01/23 01:01:26;;;;;;;;;;;12.30;46.70;;;12.51;48.80;100655.84;5031334;28;19932;-35
2024/01/23 01:03:55;;;;;;;;;;;12.30;46.70;;;12.48;49.33;100657.94;5031965;28;19929;-34
2024/01/23 01:06:23;;;;;;;;;;;12.30;46.70;;;12.49;49.66;100667.28;5032009;28;19929;-35
2024/01/23 01:08:52;;;;;;;;;;;12.30;46.70;;;12.53;48.93;100663.53;5023889;28;19933;-35
2024/01/23 01:11:20;;;;;;;;;;;12.30;46.60;;;12.48;49.33;100650.41;5030974;28;20266;-35
2024/01/23 01:13:47;;;;;;;;;;;12.30;46.70;;;12.53;48.99;100669.47;5031822;28;19925;-35
2024/01/23 01:16:15;;;;;;;;;;;12.30;46.60;;;12.51;49.37;100686.00;5033454;28;19932;-35
2024/01/23 01:18:43;;;;;;;;;;;12.30;46.70;;;12.51;48.85;100691.00;5035810;28;20003;-35
2024/01/23 01:21:13;;;;;;;;;;;12.40;46.70;;;12.53;49.38;100706.25;5035974;28;19929;-33
2024/01/23 01:23:41;;;;;;;;;;;12.30;46.60;;;12.52;48.54;100697.81;5034348;28;20415;-35
2024/01/23 01:26:09;;;;;;;;;;;12.30;46.60;;;12.49;48.87;100713.44;5035342;28;19925;-34
2024/01/23 01:28:38;;;;;;;;;;;12.30;46.60;;;12.53;49.02;100714.69;5035189;28;20035;-34
2024/01/23 01:31:06;;;;;;;;;;;12.40;46.60;;;12.52;49.30;100735.50;5033892;28;19929;-35
2024/01/23 01:33:34;;;;;;;;;;;12.40;46.70;;;12.48;48.50;100728.31;5035565;28;19925;-36
2024/01/23 01:36:02;;;;;;;;;;;12.30;46.60;;;12.51;48.96;100735.34;5035765;28;20392;-36
2024/01/23 01:38:31;;;;;;;;;;;12.30;46.60;;;12.48;49.25;100728.31;5035894;28;19947;-36
2024/01/23 01:41:03;;;;;;;;;;;12.30;46.70;;;12.50;49.16;100734.44;5035260;28;20043;-36
2024/01/23 01:43:31;;;;;;;;;;;12.30;46.70;;;12.52;49.14;100738.03;5034370;28;19971;-35
2024/01/23 01:46:13;;;;;;;;;;;12.40;46.70;;;12.52;48.87;100737.16;5034853;28;19925;-36
2024/01/23 01:48:41;;;;;;;;;;;12.30;47.20;;;12.48;49.65;100730.84;5034666;28;19936;-36
2024/01/23 01:51:09;;;;;;;;;;;12.40;46.60;;;12.50;49.01;100744.50;5035093;28;20281;-36
2024/01/23 01:53:38;;;;;;;;;;;12.30;46.60;;;12.49;48.84;100758.69;5034536;28;19972;-36
2024/01/23 01:56:07;;;;;;;;;;;12.30;46.50;;;12.50;48.66;100767.13;5034876;28;20008;-36
2024/01/23 01:58:35;;;;;;;;;;;12.30;46.50;;;12.50;49.64;100764.59;5034663;28;20007;-37
2024/01/23 02:01:03;;;;;;;;;;;12.30;46.50;;;12.52;48.81;100772.34;5034494;28;19931;-35
2024/01/23 02:03:31;;;;;;;;;;;12.30;46.50;;;12.51;48.84;100771.44;5034875;28;19979;-35
2024/01/23 02:05:59;;;;;;;;;;;12.30;46.50;;;12.51;48.88;100766.41;5035266;28;19957;-36
2024/01/23 02:08:28;;;;;;;;;;;12.30;46.50;;;12.50;49.25;100764.59;5035839;28;19924;-36
2024/01/23 02:10:57;;;;;;;;;;;12.30;46.50;;;12.49;48.95;100767.81;5035482;28;19976;-36
2024/01/23 02:13:26;;;;;;;;;;;12.30;46.50;;;12.48;49.38;100766.91;5035853;28;20011;-36
2024/01/23 02:15:54;;;;;;;;;;;12.30;46.60;;;12.49;49.42;100780.38;5026773;28;19978;-36
2024/01/23 02:18:22;;;;;;;;;;;12.30;46.60;;;12.48;48.72;100786.13;5034287;28;20385;-36
2024/01/23 02:20:50;;;;;;;;;;;12.30;46.60;;;12.48;49.35;100791.16;5034272;28;19940;-35
2024/01/23 02:23:17;;;;;;;;;;;12.30;46.60;;;12.49;48.81;100787.94;5033736;28;20411;-35
2024/01/23 02:25:47;;;;;;;;;;;12.30;46.50;;;12.47;49.72;100779.28;5034493;28;19929;-35
2024/01/23 02:28:16;;;;;;;;;;;12.30;46.50;;;12.48;49.56;100791.16;5033832;28;19973;-36
2024/01/23 02:30:44;;;;;;;;;;;12.30;46.50;;;12.47;48.73;100784.31;5032598;28;19972;-35
2024/01/23 02:33:12;;;;;;;;;;;12.30;46.50;;;12.48;48.63;100786.13;5033624;28;20289;-36
2024/01/23 02:35:40;;;;;;;;;;;12.30;46.50;;;12.45;48.47;100780.72;5034044;28;19979;-36
2024/01/23 02:38:08;;;;;;;;;;;12.30;46.50;;;12.47;49.00;100791.84;5034112;28;19973;-36
2024/01/23 02:40:36;;;;;;;;;;;12.30;46.50;;;12.47;48.85;100799.38;5034132;28;20015;-36
2024/01/23 02:43:05;;;;;;;;;;;12.30;46.50;;;12.45;49.12;100795.81;5034169;28;20002;-35
2024/01/23 02:45:34;;;;;;;;;;;12.30;46.50;;;12.45;49.18;100790.78;5033964;28;20385;-36
2024/01/23 02:48:02;;;;;;;;;;;12.30;46.50;;;12.45;48.94;100798.31;5036197;28;19937;-35
2024/01/23 02:50:30;;;;;;;;;;;12.30;46.50;;;12.44;48.99;100801.53;5042693;28;19925;-34
2024/01/23 02:52:58;;;;;;;;;;;12.30;46.50;;;12.45;49.37;100805.88;5042791;28;20496;-34
2024/01/23 02:55:26;;;;;;;;;;;12.30;46.50;;;12.46;48.91;100802.59;5034585;28;19979;-34
2024/01/23 02:57:54;;;;;;;;;;;12.30;46.50;;;12.44;49.04;100809.97;5033850;28;19972;-30
2024/01/23 03:00:23;;;;;;;;;;;12.30;46.50;;;12.45;49.26;100808.38;5034328;28;20337;-31
2024/01/23 03:02:51;;;;;;;;;;;12.30;46.50;;;12.43;49.59;100807.28;5033746;28;19948;-31
2024/01/23 03:05:20;;;;;;;;;;;12.30;46.40;;;12.44;49.23;100809.06;5033645;28;19929;-32
2024/01/23 03:07:48;;;;;;;;;;;12.30;46.40;;;12.43;49.62;100817.31;5037348;28;19936;-31
2024/01/23 03:10:16;;;;;;;;;;;12.30;46.60;;;12.42;48.64;100821.44;5043866;28;19932;-32
2024/01/23 03:12:44;;;;;;;;;;;12.30;46.50;;;12.42;48.99;100838.13;5043512;28;19932;-32
2024/01/23 03:15:12;;;;;;;;;;;12.20;46.50;;;12.44;49.50;100834.22;5043811;28;19925;-36
2024/01/23 03:17:42;;;;;;;;;;;12.30;46.50;;;12.43;49.29;100852.50;5036404;28;19932;-33
2024/01/23 03:20:11;;;;;;;;;;;12.30;46.40;;;12.44;49.18;100864.38;5033255;28;19932;-34
2024/01/23 03:22:39;;;;;;;;;;;12.30;46.50;;;12.41;49.40;100861.44;5032644;28;19940;-33
2024/01/23 03:25:07;;;;;;;;;;;12.30;46.40;;;12.41;48.89;100874.00;5032959;28;20381;-33
2024/01/23 03:27:35;;;;;;;;;;;12.30;46.50;;;12.40;48.81;100872.22;5033308;28;19932;-31
2024/01/23 03:30:04;;;;;;;;;;;12.20;46.50;;;12.36;48.70;100880.97;5033435;28;19975;-31
2024/01/23 03:32:32;;;;;;;;;;;12.20;46.60;;;12.40;48.87;100889.78;5031008;28;19925;-38
2024/01/23 03:35:01;;;;;;;;;;;12.20;46.60;;;12.41;48.95;100889.09;5033492;28;20385;-32
2024/01/23 03:37:31;;;;;;;;;;;12.20;46.50;;;12.43;49.33;100902.75;5033272;28;19925;-33
2024/01/23 03:39:58;;;;;;;;;;;12.20;46.40;;;12.44;48.81;100902.06;5032808;28;20019;-32
2024/01/23 03:42:27;;;;;;;;;;;12.30;46.50;;;12.39;49.54;100896.44;5032452;28;19931;-32
2024/01/23 03:44:54;;;;;;;;;;;12.30;46.40;;;12.44;49.18;100909.59;5032906;28;20349;-31
2024/01/23 03:47:23;;;;;;;;;;;12.30;46.40;;;12.45;48.56;100919.84;5032794;28;19925;-32
2024/01/23 03:49:51;;;;;;;;;;;12.30;46.40;;;12.43;48.92;100913.72;5033043;28;19968;-33
2024/01/23 03:52:22;;;;;;;;;;;12.30;46.40;;;12.46;48.97;100924.16;5032084;28;20411;-32
2024/01/23 03:54:50;;;;;;;;;;;12.30;46.30;;;12.46;48.49;100923.25;5032834;28;19982;-31
2024/01/23 03:57:18;;;;;;;;;;;12.30;46.30;;;12.46;48.71;100930.78;5032805;28;19972;-31
2024/01/23 03:59:46;;;;;;;;;;;12.30;46.30;;;12.45;49.41;100944.09;5032476;28;19971;-32
2024/01/23 04:02:14;;;;;;;;;;;12.30;46.40;;;12.44;48.91;100939.75;5032214;28;19925;-31
2024/01/23 04:04:42;;;;;;;;;;;12.30;46.40;;;12.46;48.68;100958.41;5032837;28;19929;-32
2024/01/23 04:07:10;;;;;;;;;;;12.30;46.40;;;12.47;49.38;100965.25;5033000;28;20309;-31
2024/01/23 04:09:40;;;;;;;;;;;12.30;46.30;;;12.47;49.08;100975.31;5036971;28;19936;-30
2024/01/23 04:12:08;;;;;;;;;;;12.30;46.30;;;12.46;48.19;100968.47;5036429;28;19948;-32
2024/01/23 04:14:36;;;;;;;;;;;12.30;46.30;;;12.47;48.25;100975.31;5036555;28;20281;-31
2024/01/23 04:17:04;;;;;;;;;;;12.30;46.30;;;12.46;48.76;100973.50;5037885;28;20058;-33
2024/01/23 04:19:32;;;;;;;;;;;12.30;46.30;;;12.45;49.06;100974.25;5038738;28;19972;-32
2024/01/23 04:22:00;;;;;;;;;;;12.30;46.30;;;12.45;48.99;100976.75;5031392;28;19988;-37
2024/01/23 04:24:28;;;;;;;;;;;12.30;46.30;;;12.45;49.11;100971.72;5043619;28;19929;-34
2024/01/23 04:26:57;;;;;;;;;;;12.30;46.30;;;12.47;49.51;100983.75;5044296;28;19960;-35
2024/01/23 04:29:25;;;;;;;;;;;12.30;46.20;;;12.45;48.66;100981.78;5041967;28;19925;-32
2024/01/23 04:31:53;;;;;;;;;;;12.30;46.20;;;12.46;48.57;100998.63;5041811;28;20003;-32
2024/01/23 04:34:21;;;;;;;;;;;12.30;46.20;;;12.46;48.65;101006.19;5040612;28;19968;-33
2024/01/23 04:36:49;;;;;;;;;;;12.30;46.20;;;12.46;49.23;101018.75;5037986;28;19929;-32
2024/01/23 04:39:17;;;;;;;;;;;12.30;46.20;;;12.42;49.09;101011.53;5032986;28;20055;-32
2024/01/23 04:41:45;;;;;;;;;;;12.30;46.20;;;12.41;49.00;101009.72;5032795;28;19925;-32
2024/01/23 04:44:14;;;;;;;;;;;12.30;46.20;;;12.43;48.52;101034.34;5032818;28;19968;-32
2024/01/23 04:46:42;;;;;;;;;;;12.30;46.20;;;12.46;49.18;101046.38;5032715;28;19925;-34
2024/01/23 04:49:10;;;;;;;;;;;12.30;46.20;;;12.46;49.14;101043.88;5033237;28;19991;-35
2024/01/23 04:51:38;;;;;;;;;;;12.30;46.20;;;12.45;48.94;101047.13;5033947;28;19926;-34
2024/01/23 04:54:06;;;;;;;;;;;12.30;46.20;;;12.46;49.05;101041.34;5036319;28;19929;-34
2024/01/23 04:56:34;;;;;;;;;;;12.30;46.20;;;12.46;48.92;101069.91;5038179;28;19924;-34
2024/01/23 04:59:02;;;;;;;;;;;12.30;46.20;;;12.47;48.63;101078.34;5037768;28;20008;-32
2024/01/23 05:01:31;;;;;;;;;;;12.30;46.20;;;12.46;48.87;101095.03;5039079;28;20011;-35
2024/01/23 05:03:59;;;;;;;;;;;12.30;46.10;;;12.45;48.71;101077.28;5037261;28;19933;-31
2024/01/23 05:06:29;;;;;;;;;;;12.30;46.10;;;12.47;48.86;101073.34;5037465;28;19925;-32
2024/01/23 05:08:57;;;;;;;;;;;12.30;46.10;;;12.43;48.90;101073.66;5036514;28;19980;-32
2024/01/23 05:11:25;;;;;;;;;;;12.30;46.10;;;12.45;48.70;101082.31;5035703;28;19932;-32
2024/01/23 05:13:53;;;;;;;;;;;12.30;46.10;;;12.45;48.80;101090.75;5035764;28;19932;-35
2024/01/23 05:16:21;;;;;;;;;;;12.30;46.10;;;12.45;48.23;101103.31;5036020;28;20012;-34
2024/01/23 05:18:50;;;;;;;;;;;12.30;46.10;;;12.44;48.41;101110.66;5036221;28;19929;-34
2024/01/23 05:21:19;;;;;;;;;;;12.30;46.10;;;12.43;48.28;101113.88;5036345;28;19929;-33
2024/01/23 05:23:47;;;;;;;;;;;12.30;46.10;;;12.47;49.12;101131.13;5036286;28;19924;-34
2024/01/23 05:26:15;;;;;;;;;;;12.30;46.10;;;12.44;48.20;101134.19;5035491;28;20373;-33
2024/01/23 05:28:43;;;;;;;;;;;12.20;46.00;;;12.34;48.52;101127.72;5035521;28;19972;-35
2024/01/23 05:31:11;;;;;;;;;;;12.30;46.10;;;12.44;48.00;101150.88;5035437;28;20011;-33
2024/01/23 05:33:39;;;;;;;;;;;12.30;46.20;;;12.43;49.07;101159.09;5034648;28;20411;-39
2024/01/23 05:36:16;;;;;;;;;;;12.30;46.20;;;12.44;48.53;101155.88;5035517;28;19925;-33
2024/01/23 05:38:44;;;;;;;;;;;12.30;46.20;;;12.44;48.57;101155.88;5035456;28;19929;-33
2024/01/23 05:41:12;;;;;;;;;;;12.30;46.10;;;12.45;48.85;101165.25;5035281;28;19988;-33
2024/01/23 05:43:40;;;;;;;;;;;12.30;46.10;;;12.43;48.62;101175.09;5034673;28;20020;-34
2024/01/23 05:46:08;;;;;;;;;;;12.20;46.10;;;12.35;48.22;101165.63;5035184;28;19973;-32
2024/01/23 05:48:35;;;;;;;;;;;12.20;46.10;;;12.41;48.50;101186.53;5035428;28;20016;-35
2024/01/23 05:51:04;;;;;;;;;;;12.30;46.20;;;12.43;47.99;101185.13;5035090;28;19925;-33
2024/01/23 05:53:33;;;;;;;;;;;12.20;46.10;;;12.14;48.29;101131.78;5034538;28;19932;-34
2024/01/23 05:56:01;;;;;;;;;;;12.30;46.10;;;12.44;48.95;101196.09;5035330;28;20408;-33
2024/01/23 05:58:29;;;;;;;;;;;12.30;46.10;;;12.41;49.19;101203.22;5035146;28;19925;-33
2024/01/23 06:00:57;;;;;;;;;;;12.20;46.10;;;11.73;48.52;101079.50;5035250;28;20381;-34
2024/01/23 06:03:25;;;;;;;;;;;12.30;46.10;;;12.41;47.97;101221.72;5034481;28;19929;-31
2024/01/23 06:05:54;;;;;;;;;;;12.20;46.10;;;12.41;48.90;101235.91;5034884;28;19972;-34
2024/01/23 06:08:23;;;;;;;;;;;12.30;46.20;;;12.40;49.15;101235.00;5035097;28;20363;-31
2024/01/23 06:10:52;;;;;;;;;;;12.20;46.10;;;12.42;48.76;101242.75;5034815;28;20023;-32
2024/01/23 06:13:20;;;;;;;;;;;12.20;46.10;;;12.41;48.91;101250.97;5034763;28;19925;-32
2024/01/23 06:15:48;;;;;;;;;;;12.30;46.20;;;12.41;48.63;101245.94;5035279;28;20034;-33
2024/01/23 06:18:16;;;;;;;;;;;12.30;46.10;;;12.41;48.39;101245.94;5035141;28;19979;-33
2024/01/23 06:20:44;;;;;;;;;;;12.30;46.10;;;12.41;48.29;101253.50;5034938;28;19972;-32
2024/01/23 06:23:12;;;;;;;;;;;12.20;46.10;;;12.40;49.24;101259.22;5034313;28;19972;-33
2024/01/23 06:25:40;;;;;;;;;;;12.20;46.10;;;12.40;49.06;101279.31;5034427;28;19935;-34
2024/01/23 06:28:09;;;;;;;;;;;12.20;46.10;;;12.40;48.67;101275.19;5026749;28;20440;-31
2024/01/23 06:30:37;;;;;;;;;;;12.20;46.10;;;12.42;48.03;101278.84;5033024;28;20467;-32
2024/01/23 06:33:06;;;;;;;;;;;12.20;46.10;;;12.43;49.43;101279.75;5034762;28;20005;-32
2024/01/23 06:35:34;;;;;;;;;;;12.30;46.10;;;12.37;48.29;101268.88;5034372;28;19972;-35
2024/01/23 06:38:02;;;;;;;;;;;12.30;46.10;;;12.43;49.06;101284.75;5034721;28;20007;-35
2024/01/23 06:40:30;;;;;;;;;;;12.20;46.10;;;12.41;48.03;101296.22;5035221;28;20012;-35
2024/01/23 06:42:58;;;;;;;;;;;12.20;46.10;;;12.40;48.87;101294.41;5034701;28;20011;-34
2024/01/23 06:45:27;;;;;;;;;;;12.20;46.10;;;12.41;48.42;101296.22;5040590;28;19965;-33
2024/01/23 06:47:55;;;;;;;;;;;12.20;46.10;;;12.43;48.43;101302.34;5040360;28;20424;-31
2024/01/23 06:50:23;;;;;;;;;;;12.20;46.10;;;12.43;49.01;101302.34;5035631;28;19926;-32
2024/01/23 06:52:51;;;;;;;;;;;12.20;46.10;;;12.45;48.55;101303.47;5033911;28;20008;-34
2024/01/23 06:55:19;;;;;;;;;;;12.30;46.10;;;12.44;48.02;101312.63;5034407;28;19925;-34
2024/01/23 06:57:47;;;;;;;;;;;12.30;46.10;;;12.44;49.22;101311.72;5034018;28;20428;-32
2024/01/23 07:00:16;;;;;;;;;;;12.30;46.10;;;12.43;48.57;101314.94;5034151;28;19933;-32
2024/01/23 07:02:46;;;;;;;;;;;12.30;46.10;;;12.44;48.68;101316.75;5034137;28;19925;-36
2024/01/23 07:05:14;;;;;;;;;;;12.30;46.10;;;12.46;48.69;101330.41;5033670;28;19971;-32
2024/01/23 07:07:42;;;;;;;;;;;12.30;46.10;;;12.46;49.09;101340.44;5033529;28;19925;-32
2024/01/23 07:10:10;;;;;;;;;;;12.30;46.00;;;12.47;49.11;101352.31;5025810;28;19972;-32
2024/01/23 07:12:38;;;;;;;;;;;12.30;46.00;;;12.47;48.89;101357.34;5032817;28;20433;-32
2024/01/23 07:15:07;;;;;;;;;;;12.30;46.10;;;12.46;48.42;101360.56;5032488;28;19925;-32
2024/01/23 07:17:35;;;;;;;;;;;12.30;46.10;;;12.43;48.40;101360.16;5033442;28;19926;-35
2024/01/23 07:20:09;;;;;;;;;;;12.30;46.00;;;12.47;48.94;101367.41;5033591;28;20016;-35
2024/01/23 07:22:37;;;;;;;;;;;12.30;46.00;;;12.49;48.84;101376.06;5033000;28;19932;-36
2024/01/23 07:25:05;;;;;;;;;;;12.30;46.00;;;12.48;48.36;101379.28;5033412;28;19940;-32
2024/01/23 07:27:36;;;;;;;;;;;12.30;46.00;;;12.39;48.34;101368.88;5033643;28;19925;-30
2024/01/23 07:30:05;;;;;;;;;;;12.30;45.90;;;12.50;48.06;101398.00;5033194;28;19925;-32
2024/01/23 07:32:33;;;;;;;;;;;12.30;45.90;;;12.48;48.39;101389.31;5030881;28;19929;-33
2024/01/23 07:35:01;;;;;;;;;;;12.30;46.00;;;12.47;48.26;101397.56;5032737;28;19933;-33
2024/01/23 07:37:31;;;;;;;;;;;12.30;46.00;;;12.47;48.75;101392.53;5032983;28;19930;-33
2024/01/23 07:39:59;;;;;;;;;;;12.30;46.00;;;12.48;48.44;101400.28;5032737;28;19925;-33
2024/01/23 07:42:27;;;;;;;;;;;12.30;46.00;;;12.49;48.44;101391.16;5032120;28;19927;-33
2024/01/23 07:44:55;;;;;;;;;;;12.30;46.00;;;12.50;49.12;101387.94;5032940;28;20343;-33
2024/01/23 07:47:23;;;;;;;;;;;12.30;46.50;;;12.49;48.13;101392.06;5032820;28;19925;-33
2024/01/23 07:49:51;;;;;;;;;;;12.30;45.90;;;12.46;48.36;101385.69;5032455;28;19968;-32
2024/01/23 07:52:21;;;;;;;;;;;12.30;45.90;;;12.48;48.93;101399.38;5031863;28;19932;-33
2024/01/23 07:54:52;;;;;;;;;;;12.30;46.00;;;12.47;48.78;101401.00;5032097;28;19937;-34
2024/01/23 07:57:20;;;;;;;;;;;12.30;46.00;;;12.49;48.34;101416.28;5032397;28;19987;-34
2024/01/23 07:59:48;;;;;;;;;;;12.30;46.00;;;12.48;48.77;101410.34;5032306;28;19979;-33
2024/01/23 08:02:15;;;;;;;;;;;12.30;46.00;;;12.50;48.65;101423.13;5031660;28;19925;-34
2024/01/23 08:04:43;;;;;;;;;;;12.30;45.90;;;12.48;48.84;101429.53;5032182;28;19925;-34
2024/01/23 08:07:13;;;;;;;;;;;12.30;46.00;;;12.48;48.14;101439.59;5032465;28;19925;-35
2024/01/23 08:09:41;;;;;;;;;;;12.30;46.00;;;12.38;48.78;101426.50;5032115;28;20487;-34
2024/01/23 08:12:10;;;;;;;;;;;12.30;46.00;;;12.48;48.59;101439.59;5031398;28;19928;-35
2024/01/23 08:14:38;;;;;;;;;;;12.30;46.00;;;12.49;48.64;101446.44;5032044;28;19929;-35
2024/01/23 08:17:06;;;;;;;;;;;12.30;46.00;;;12.47;48.82;101447.84;5032193;28;19925;-35
2024/01/23 08:19:35;;;;;;;;;;;12.30;45.90;;;12.52;48.99;101466.94;5031915;28;20303;-34
2024/01/23 08:22:04;;;;;;;;;;;12.30;45.90;;;12.48;48.68;101474.78;5031290;28;19981;-35
2024/01/23 08:24:32;;;;;;;;;;;12.30;45.90;;;12.47;48.91;101470.47;5031703;28;19933;-35
2024/01/23 08:27:00;;;;;;;;;;;12.30;46.00;;;12.47;48.49;101485.53;5032108;28;19952;-35
2024/01/23 08:29:29;;;;;;;;;;;12.30;46.00;;;12.48;48.49;101489.88;5031832;28;19971;-34
2024/01/23 08:31:57;;;;;;;;;;;12.30;46.00;;;12.48;48.27;101499.94;5031099;28;19925;-34
2024/01/23 08:34:25;;;;;;;;;;;12.30;46.00;;;12.41;48.53;101482.19;5031770;28;19972;-35
2024/01/23 08:36:53;;;;;;;;;;;12.30;46.00;;;12.51;48.35;101494.41;5032082;28;20376;-34
2024/01/23 08:39:21;;;;;;;;;;;12.30;45.90;;;12.50;48.51;101513.63;5032073;28;19925;-34
2024/01/23 08:41:52;;;;;;;;;;;12.30;45.90;;;12.46;48.78;101516.41;5031214;28;19932;-34
2024/01/23 08:44:21;;;;;;;;;;;12.30;45.90;;;12.48;48.28;101525.06;5031816;28;19925;-34
2024/01/23 08:46:50;;;;;;;;;;;12.30;45.90;;;12.49;48.37;101532.81;5031798;28;20023;-35
2024/01/23 08:49:18;;;;;;;;;;;12.30;46.20;;;12.49;48.71;101536.94;5023871;28;19925;-36
2024/01/23 08:51:47;;;;;;;;;;;12.30;45.90;;;12.51;48.36;101534.66;5030883;28;19925;-35
2024/01/23 08:54:19;;;;;;;;;;;12.30;45.90;;;12.52;49.38;101537.34;5023543;28;19932;-35
2024/01/23 08:56:47;;;;;;;;;;;12.30;45.90;;;12.50;47.84;101543.78;5031821;28;19925;-35
2024/01/23 08:59:15;;;;;;;;;;;12.40;46.00;;;12.50;48.08;101548.81;5023578;28;19925;-35
2024/01/23 09:01:43;;;;;;;;;;;12.30;45.90;;;12.49;49.26;101542.88;5030665;28;19933;-35
2024/01/23 09:04:12;;;;;;;;;;;12.30;45.90;;;12.50;48.66;101538.75;5031764;28;20373;-33
2024/01/23 09:06:40;;;;;;;;;;;12.30;45.90;;;12.52;48.78;101552.41;5031650;28;19983;-34
2024/01/23 09:09:09;;;;;;;;;;;12.30;45.90;;;12.52;48.05;101542.38;5031634;28;19957;-34
2024/01/23 09:11:37;;;;;;;;;;;12.40;46.00;;;12.53;48.67;101548.31;5030827;28;19929;-34
2024/01/23 09:14:05;;;;;;;;;;;12.40;46.00;;;12.51;48.42;101550.63;5031391;28;19931;-34
2024/01/23 09:16:34;;;;;;;;;;;12.40;46.00;;;12.50;48.83;101536.25;5031515;28;19931;-35
2024/01/23 09:19:01;;;;;;;;;;;12.30;45.90;;;12.48;48.89;101550.19;5031799;28;19976;-35
2024/01/23 09:21:31;;;;;;;;;;;12.40;46.00;;;12.52;48.17;101557.44;5030768;28;20450;-35
2024/01/23 09:24:00;;;;;;;;;;;12.30;45.90;;;12.51;48.82;101555.66;5031744;28;19929;-34
2024/01/23 09:26:28;;;;;;;;;;;12.40;46.00;;;12.52;47.94;101547.41;5031412;28;19925;-35
2024/01/23 09:28:56;;;;;;;;;;;12.30;45.90;;;12.52;48.87;101552.41;5031166;28;20004;-35
2024/01/23 09:31:24;;;;;;;;;;;12.40;46.00;;;12.53;48.11;101549.22;5026017;28;19925;-36
2024/01/23 09:33:52;;;;;;;;;;;12.40;46.00;;;12.51;48.46;101549.72;5031445;28;20372;-35
2024/01/23 09:36:20;;;;;;;;;;;12.30;45.90;;;12.48;48.86;101560.25;5031259;28;19925;-35
2024/01/23 09:38:53;;;;;;;;;;;12.30;45.90;;;12.52;48.45;101559.97;5035048;28;20018;-34
2024/01/23 09:41:21;;;;;;;;;;;12.30;45.90;;;12.53;48.40;101554.25;5034937;28;19929;-35
2024/01/23 09:43:49;;;;;;;;;;;12.40;46.00;;;12.54;48.47;101561.09;5035126;28;19925;-34
2024/01/23 09:46:18;;;;;;;;;;;12.40;46.00;;;12.54;48.72;101553.56;5034798;28;20388;-35
2024/01/23 09:48:47;;;;;;;;;;;12.30;46.50;;;12.54;48.42;101548.53;5035004;28;19968;-35
2024/01/23 09:51:15;;;;;;;;;;;12.40;46.20;;;12.53;48.89;101539.16;5034743;28;19925;-35
2024/01/23 09:53:43;;;;;;;;;;;12.40;46.00;;;12.52;47.94;101551.53;5033966;28;19929;-35
2024/01/23 09:56:12;;;;;;;;;;;12.40;46.00;;;12.49;48.50;101552.03;5034909;28;20296;-35
2024/01/23 09:58:40;;;;;;;;;;;12.40;46.00;;;12.55;48.91;101547.84;5035521;28;20019;-35
2024/01/23 10:01:08;;;;;;;;;;;12.40;46.00;;;12.55;48.28;101562.91;5034968;28;19925;-35
2024/01/23 10:03:36;;;;;;;;;;;12.40;46.00;;;12.55;48.04;101550.34;5034465;28;19936;-35
2024/01/23 10:06:05;;;;;;;;;;;12.40;46.00;;;12.54;48.45;101561.09;5034716;28;19980;-35
2024/01/23 10:08:33;;;;;;;;;;;12.40;46.00;;;12.54;48.68;101561.09;5034800;28;20278;-35
2024/01/23 10:11:02;;;;;;;;;;;12.40;46.00;;;12.54;48.95;101581.19;5035656;28;19960;-35
2024/01/23 10:13:31;;;;;;;;;;;12.40;46.10;;;12.51;48.75;101575.78;5034988;28;19933;-34
2024/01/23 10:15:59;;;;;;;;;;;12.40;46.70;;;12.52;47.85;101601.81;5036394;28;20040;-35
2024/01/23 10:18:27;;;;;;;;;;;12.30;46.00;;;12.55;47.83;101617.31;5036449;28;19925;-35
2024/01/23 10:20:57;;;;;;;;;;;12.40;46.10;;;12.54;48.04;101606.34;5036188;28;20444;-35
2024/01/23 10:23:26;;;;;;;;;;;12.40;46.00;;;12.53;48.67;101622.13;5036184;28;20024;-35
2024/01/23 10:25:58;;;;;;;;;;;12.40;46.10;;;12.55;48.78;101618.22;5035211;28;20023;-35
2024/01/23 10:28:26;;;;;;;;;;;12.40;46.00;;;12.54;48.72;101626.44;5034190;28;19931;-35
2024/01/23 10:30:55;;;;;;;;;;;12.40;46.00;;;12.52;48.21;101632.88;5033784;28;19995;-34
2024/01/23 10:33:23;;;;;;;;;;;12.40;46.00;;;12.52;48.25;101627.84;5025735;28;19932;-34
2024/01/23 10:35:51;;;;;;;;;;;12.40;46.10;;;12.53;48.35;101636.28;5034224;28;19929;-34
2024/01/23 10:38:19;;;;;;;;;;;12.40;46.00;;;12.55;48.13;101645.88;5034150;28;20451;-34
2024/01/23 10:40:47;;;;;;;;;;;12.40;46.00;;;12.55;48.51;101643.38;5034224;28;19976;-35
2024/01/23 10:43:15;;;;;;;;;;;12.40;46.00;;;12.53;48.60;101639.72;5033294;28;20033;-34
2024/01/23 10:45:43;;;;;;;;;;;12.40;46.00;;;12.52;48.90;101632.00;5034084;28;19931;-34
2024/01/23 10:48:13;;;;;;;;;;;12.30;46.00;;;12.21;48.84;101582.50;5033379;28;20416;-34
2024/01/23 10:50:41;;;;;;;;;;;12.30;46.00;;;12.50;48.53;101636.81;5034056;28;19932;-35
2024/01/23 10:53:09;;;;;;;;;;;12.30;46.10;;;12.50;48.60;101634.28;5033505;28;19925;-34
2024/01/23 10:55:38;;;;;;;;;;;12.30;46.10;;;12.50;48.83;101629.25;5033623;28;19925;-34
2024/01/23 10:58:10;;;;;;;;;;;12.30;46.10;;;12.51;49.01;101626.06;5033634;28;19940;-34
2024/01/23 11:00:38;;;;;;;;;;;12.30;46.00;;;12.52;48.96;101626.97;5033277;28;19965;-34
2024/01/23 11:03:06;;;;;;;;;;;12.30;46.00;;;12.51;49.15;101613.47;5032825;28;19925;-34
2024/01/23 11:05:39;;;;;;;;;;;12.30;46.00;;;12.51;48.19;101621.03;5033394;28;19976;-34
2024/01/23 11:08:11;;;;;;;;;;;12.30;46.00;;;12.49;48.67;101617.38;5033444;28;19979;-34
2024/01/23 11:10:41;;;;;;;;;;;12.30;46.00;;;12.49;49.33;101629.94;5033389;28;19925;-35
2024/01/23 11:13:11;;;;;;;;;;;12.30;46.10;;;12.49;48.38;101624.91;5032411;28;19925;-34
2024/01/23 11:15:39;;;;;;;;;;;12.30;46.10;;;12.47;48.94;101634.75;5033564;28;20023;-35